Barrow, AK

7:39 AM AKDT on April 27, 2015 (GMT -0800)
Nuiqsut | | Change Station
CLOSE
Current Station
Airport
Location: Nuiqsut,
Elevation: 39 ft
Nearby Weather Stations

Elev 39 ft 70.21 °N, 150.99 °W | Updated 46 minutes ago

Overcast
Overcast
8 °F
Feels Like 1 °F
N
4
Wind Variable Wind from WNW

Today
High -- | Low -- °F
--% Chance of Precip.
Yesterday
High -- | Low -- °F
Precip. -- in
4:54 AM 11:12 PM
Waxing Gibbous, 66% visible
Pressure 30.02 in
Visibility 7.0 miles
Clouds Overcast 400 ft
Windchill 1 °F
Dew Point 5 °F
Humidity 87%
Rainfall 0.00 in
Snow Depth Not available.
UV 0 out of 12
Pollen Not available.
Air Quality Not available.
Flu Activity Sporadic
METAR PAQT 271453Z AUTO 30003KT 7SM UP OVC004 M13/M15 A3002 RMK UPE39B49SNB39E49 SLP166 P0000 60000 T11331150 53002 TSNO $ VIA AUTODIAL

More Conditions Fewer Conditions

Pressure 30.02 in
Visibility 7.0 miles
Clouds Overcast 400 ft
Windchill 1 °F
Dew Point 5 °F
Humidity 87%
Rainfall 0.00 in
Snow Depth Not available.
UV 0 out of 12
Pollen Not available.
Air Quality Not available.
Flu Activity Sporadic
METAR PAQT 271453Z AUTO 30003KT 7SM UP OVC004 M13/M15 A3002 RMK UPE39B49SNB39E49 SLP166 P0000 60000 T11331150 53002 TSNO $ VIA AUTODIAL

More Conditions Fewer Conditions

10-Day Weather Forecast

Almanac

Astronomy

Apr. 27, 2015 Rise Set
Actual Time
Civil Twilight
Nautical Twilight
Astronomical Twilight
Moon
Length of Visible Light
Length of Day
Tomorrow will be .
, % of the Moon is Illuminated

Today's Extremes

State Highs State Lows

Community

WunderPhotos

Upload Photos

1,817,327 photos uploaded!

WunderBlogs® & News

Nearby

Air Quality

  Air Quality AQ Index Pollutant
Not available.

Snow Depth

Station Depth Elevation

Earthquake Activity

City Distance Mag. Time & Date
Minimum magnitude displayed is 2.5.

Coastal Water Temperatures

Place Temperature

Stations

Nearby Weather Stations

Station Location Temp. Windchill Dew Point Humidity Wind Precip. Elev Updated Type